createdAt,value
2023-03-04T00:00:56.224Z,-0.20
2023-03-04T00:03:23.101Z,-0.10
2023-03-04T00:05:49.951Z,-0.20
2023-03-04T00:08:16.785Z,-0.20
2023-03-04T00:10:43.707Z,-0.20
2023-03-04T00:13:10.719Z,-0.20
2023-03-04T00:15:37.492Z,0.00
2023-03-04T00:18:04.322Z,-0.10
2023-03-04T00:20:31.143Z,-0.20
2023-03-04T00:22:57.967Z,-0.30
2023-03-04T00:25:24.762Z,-0.40
2023-03-04T00:27:51.584Z,-0.10
2023-03-04T00:30:18.550Z,-0.20
2023-03-04T00:32:45.373Z,-0.40
2023-03-04T00:35:12.173Z,-0.40
2023-03-04T00:37:39.100Z,-0.50
2023-03-04T00:40:06.233Z,-0.50
2023-03-04T00:42:33.129Z,-0.40
2023-03-04T00:44:59.916Z,-0.40
2023-03-04T00:47:26.767Z,-0.50
2023-03-04T00:49:53.563Z,-0.50
2023-03-04T00:52:20.419Z,-0.40
2023-03-04T00:54:47.243Z,-0.60
2023-03-04T00:57:14.117Z,-0.70
2023-03-04T00:59:41.294Z,-0.80
2023-03-04T01:02:08.212Z,-0.90
2023-03-04T01:04:35.108Z,-0.90
2023-03-04T01:07:01.970Z,-0.70
2023-03-04T01:09:29.060Z,-0.70
2023-03-04T01:11:55.901Z,-0.60
2023-03-04T01:14:22.725Z,-0.60
2023-03-04T01:16:50.035Z,-0.70
2023-03-04T01:19:17.052Z,-0.80
2023-03-04T01:21:43.921Z,-0.70
2023-03-04T01:24:10.730Z,-0.60
2023-03-04T01:26:40.934Z,-0.70
2023-03-04T01:29:07.746Z,-0.60
2023-03-04T01:31:35.050Z,-0.80
2023-03-04T01:34:01.804Z,-0.80
2023-03-04T01:36:28.625Z,-0.80
2023-03-04T01:38:55.434Z,-1.00
2023-03-04T01:41:26.136Z,-1.00
2023-03-04T01:43:55.545Z,-1.10
2023-03-04T01:46:22.426Z,-1.00
2023-03-04T01:48:49.438Z,-1.00
2023-03-04T01:51:17.454Z,-1.00
2023-03-04T01:53:45.267Z,-1.10
2023-03-04T01:56:16.963Z,-1.20
2023-03-04T01:58:43.798Z,-1.10
2023-03-04T02:01:12.152Z,-1.00
2023-03-04T02:03:39.308Z,-1.60
2023-03-04T02:06:06.413Z,-1.20
2023-03-04T02:08:34.538Z,-1.20
2023-03-04T02:11:01.328Z,-1.20
2023-03-04T02:13:28.356Z,-1.20
2023-03-04T02:15:56.036Z,-1.20
2023-03-04T02:18:23.748Z,-1.30
2023-03-04T02:21:03.299Z,-1.30
2023-03-04T02:23:53.413Z,-1.40
2023-03-04T02:26:21.646Z,-1.30
2023-03-04T02:28:52.005Z,-1.30
2023-03-04T02:31:31.302Z,-1.40
2023-03-04T02:34:00.450Z,-1.30
2023-03-04T02:36:28.078Z,-1.30
2023-03-04T02:38:55.684Z,-1.30
2023-03-04T02:41:24.966Z,-1.40
2023-03-04T02:43:52.935Z,-1.60
2023-03-04T02:46:19.979Z,-1.50
2023-03-04T02:48:47.655Z,-1.60
2023-03-04T02:51:14.446Z,-1.60
2023-03-04T02:53:41.282Z,-1.60
2023-03-04T02:56:08.597Z,-1.70
2023-03-04T02:58:38.306Z,-1.60
2023-03-04T03:01:06.095Z,-1.50
2023-03-04T03:03:33.612Z,-1.50
2023-03-04T03:06:00.642Z,-1.60
2023-03-04T03:08:27.497Z,-1.70
2023-03-04T03:10:54.631Z,-1.70
2023-03-04T03:13:22.870Z,-1.60
2023-03-04T03:15:50.210Z,-1.60
2023-03-04T03:18:17.408Z,-1.60
2023-03-04T03:20:44.240Z,-1.50
2023-03-04T03:23:11.070Z,-1.60
2023-03-04T03:25:37.955Z,-1.50
2023-03-04T03:28:05.927Z,-1.60
2023-03-04T03:30:32.804Z,-1.50
2023-03-04T03:32:59.714Z,-1.70
2023-03-04T03:35:26.704Z,-1.60
2023-03-04T03:37:53.613Z,-1.60
2023-03-04T03:40:20.449Z,-1.90
2023-03-04T03:42:47.200Z,-1.90
2023-03-04T03:45:14.135Z,-1.90
2023-03-04T03:47:41.068Z,-1.90
2023-03-04T03:50:08.284Z,-2.00
2023-03-04T03:52:35.268Z,-1.90
2023-03-04T03:55:02.582Z,-1.90
2023-03-04T03:57:29.889Z,-2.00
2023-03-04T03:59:57.015Z,-2.00
2023-03-04T04:02:24.325Z,-1.90
2023-03-04T04:04:51.225Z,-2.10
2023-03-04T04:07:18.002Z,-1.90
2023-03-04T04:09:45.162Z,-2.00
2023-03-04T04:12:14.640Z,-1.90
2023-03-04T04:14:41.592Z,-2.00
2023-03-04T04:17:08.689Z,-2.00
2023-03-04T04:19:35.592Z,-1.90
2023-03-04T04:22:03.043Z,-1.90
2023-03-04T04:24:29.811Z,-1.90
2023-03-04T04:26:57.447Z,-2.10
2023-03-04T04:29:24.319Z,-2.10
2023-03-04T04:31:51.357Z,-2.10
2023-03-04T04:34:18.164Z,-2.10
2023-03-04T04:36:45.026Z,-2.10
2023-03-04T04:39:11.871Z,-2.20
2023-03-04T04:41:39.855Z,-2.20
2023-03-04T04:44:07.099Z,-2.10
2023-03-04T04:46:34.432Z,-2.30
2023-03-04T04:49:01.914Z,-2.20
2023-03-04T04:51:29.163Z,-2.10
2023-03-04T04:53:56.009Z,-2.30
2023-03-04T04:56:26.211Z,-2.20
2023-03-04T04:58:54.143Z,-2.30
2023-03-04T05:01:21.411Z,-2.30
2023-03-04T05:03:50.588Z,-2.30
2023-03-04T05:06:17.332Z,-2.30
2023-03-04T05:08:44.130Z,-2.20
2023-03-04T05:11:10.975Z,-2.30
2023-03-04T05:13:37.808Z,-2.30
2023-03-04T05:16:05.028Z,-2.40
2023-03-04T05:18:32.088Z,-2.30
2023-03-04T05:20:59.782Z,-2.40
2023-03-04T05:23:27.208Z,-2.40
2023-03-04T05:25:53.993Z,-2.20
2023-03-04T05:28:20.887Z,-2.10
2023-03-04T05:30:47.877Z,-2.10
2023-03-04T05:33:15.979Z,-1.80
2023-03-04T05:35:42.921Z,-1.70
2023-03-04T05:38:10.706Z,-1.70
2023-03-04T05:40:37.826Z,-1.40
2023-03-04T05:43:04.708Z,-1.40
2023-03-04T05:45:31.524Z,-1.30
2023-03-04T05:47:58.345Z,-1.20
2023-03-04T05:50:25.405Z,-1.10
2023-03-04T05:52:52.938Z,-1.10
2023-03-04T05:55:20.017Z,-1.00
2023-03-04T05:57:47.154Z,-0.80
2023-03-04T06:00:14.621Z,-0.70
2023-03-04T06:02:42.045Z,-0.60
2023-03-04T06:05:09.245Z,-0.60
2023-03-04T06:07:36.046Z,-0.40
2023-03-04T06:10:03.364Z,-0.40
2023-03-04T06:12:30.206Z,-0.40
2023-03-04T06:14:57.016Z,-0.30
2023-03-04T06:17:23.837Z,-0.20
2023-03-04T06:19:50.618Z,-0.20
2023-03-04T06:22:17.386Z,-0.10
2023-03-04T06:24:44.203Z,-0.10
2023-03-04T06:27:11.080Z,0.00
2023-03-04T06:29:38.016Z,0.10
2023-03-04T06:32:04.992Z,0.00
2023-03-04T06:34:33.739Z,0.10
2023-03-04T06:37:00.652Z,0.10
2023-03-04T06:39:27.496Z,0.10
2023-03-04T06:41:54.406Z,0.30
2023-03-04T06:44:21.314Z,0.20
2023-03-04T06:46:48.171Z,0.40
2023-03-04T06:49:15.137Z,0.50
2023-03-04T06:51:41.881Z,0.60
2023-03-04T06:54:09.422Z,0.60
2023-03-04T06:56:36.363Z,0.80
2023-03-04T06:59:03.248Z,0.80
2023-03-04T07:01:30.228Z,0.90
2023-03-04T07:03:57.219Z,0.90
2023-03-04T07:06:25.412Z,0.90
2023-03-04T07:08:52.241Z,1.00
2023-03-04T07:11:19.148Z,1.00
2023-03-04T07:13:46.564Z,1.00
2023-03-04T07:16:14.858Z,1.10
2023-03-04T07:18:41.803Z,1.20
2023-03-04T07:21:08.644Z,1.10
2023-03-04T07:23:35.760Z,1.20
2023-03-04T07:26:02.728Z,1.40
2023-03-04T07:28:29.789Z,1.30
2023-03-04T07:30:56.696Z,1.40
2023-03-04T07:33:23.519Z,1.40
2023-03-04T07:35:58.128Z,1.60
2023-03-04T07:38:25.047Z,1.60
2023-03-04T07:40:58.452Z,1.50
2023-03-04T07:43:25.634Z,1.80
2023-03-04T07:45:52.483Z,1.90
2023-03-04T07:48:19.434Z,1.90
2023-03-04T07:50:46.256Z,1.80
2023-03-04T07:53:13.192Z,2.20
2023-03-04T07:55:39.943Z,2.30
2023-03-04T07:58:06.888Z,2.40
2023-03-04T08:00:34.124Z,2.50
2023-03-04T08:03:01.003Z,2.50
2023-03-04T08:05:28.325Z,2.60
2023-03-04T08:07:57.919Z,2.80
2023-03-04T08:10:24.801Z,3.00
2023-03-04T08:12:51.595Z,3.00
2023-03-04T08:15:18.409Z,3.20
2023-03-04T08:17:45.315Z,3.30
2023-03-04T08:20:12.407Z,3.30
2023-03-04T08:22:39.199Z,3.40
2023-03-04T08:25:06.040Z,3.50
2023-03-04T08:27:32.843Z,3.60
2023-03-04T08:29:59.641Z,3.50
2023-03-04T08:32:26.504Z,3.70
2023-03-04T08:34:55.264Z,3.80
2023-03-04T08:37:22.015Z,3.90
2023-03-04T08:39:48.790Z,4.00
2023-03-04T08:42:15.989Z,4.10
2023-03-04T08:44:42.821Z,4.30
2023-03-04T08:47:10.333Z,4.30
2023-03-04T08:49:37.329Z,4.40
2023-03-04T08:52:04.438Z,4.40
2023-03-04T08:54:31.202Z,4.30
2023-03-04T08:56:58.161Z,4.40
2023-03-04T08:59:25.040Z,4.50
2023-03-04T09:01:52.073Z,4.40
2023-03-04T09:04:18.908Z,4.40
2023-03-04T09:06:45.667Z,4.30
2023-03-04T09:09:12.452Z,4.40
2023-03-04T09:11:39.396Z,4.40
2023-03-04T09:14:06.233Z,4.50
2023-03-04T09:16:33.094Z,4.50
2023-03-04T09:19:00.494Z,4.60
2023-03-04T09:21:27.325Z,4.40
2023-03-04T09:23:54.102Z,4.30
2023-03-04T09:26:22.684Z,4.30
2023-03-04T09:28:50.405Z,4.30
2023-03-04T09:31:17.444Z,4.50
2023-03-04T09:33:44.685Z,4.20
2023-03-04T09:36:12.482Z,4.00
2023-03-04T09:38:39.356Z,4.10
2023-03-04T09:41:08.549Z,4.10
2023-03-04T09:43:35.974Z,4.00
2023-03-04T09:46:04.747Z,4.20
2023-03-04T09:48:39.401Z,4.40
2023-03-04T09:51:26.445Z,4.40
2023-03-04T09:53:58.870Z,4.40
2023-03-04T09:56:26.525Z,4.40
2023-03-04T09:58:56.412Z,4.30
2023-03-04T10:01:26.759Z,4.30
2023-03-04T10:04:18.646Z,4.40
2023-03-04T10:06:51.608Z,4.40
2023-03-04T10:09:24.859Z,4.40
2023-03-04T10:12:03.044Z,4.40
2023-03-04T10:14:29.839Z,4.40
2023-03-04T10:16:59.578Z,4.50
2023-03-04T10:19:26.408Z,4.60
2023-03-04T10:21:53.387Z,4.60
2023-03-04T10:24:22.579Z,4.60
2023-03-04T10:26:53.762Z,4.50
2023-03-04T10:29:22.634Z,4.60
2023-03-04T10:31:49.795Z,4.60
2023-03-04T10:34:17.477Z,4.70
2023-03-04T10:36:50.081Z,4.90
2023-03-04T10:39:18.904Z,5.00
2023-03-04T10:41:53.436Z,5.00
2023-03-04T10:44:20.340Z,5.00
2023-03-04T10:46:48.426Z,4.90
2023-03-04T10:49:17.682Z,4.50
2023-03-04T10:51:45.828Z,4.40
2023-03-04T10:54:32.391Z,4.30
2023-03-04T10:57:02.260Z,4.30
2023-03-04T10:59:32.333Z,4.30
2023-03-04T11:02:09.087Z,4.50
2023-03-04T11:04:36.034Z,4.60
2023-03-04T11:07:07.954Z,4.70
2023-03-04T11:09:34.798Z,4.70
2023-03-04T11:12:02.813Z,4.60
2023-03-04T11:14:43.267Z,4.60
2023-03-04T11:17:27.143Z,4.70
2023-03-04T11:19:56.758Z,4.80
2023-03-04T11:22:24.452Z,4.70
2023-03-04T11:24:55.466Z,4.70
2023-03-04T11:27:26.201Z,4.80
2023-03-04T11:30:03.581Z,4.90
2023-03-04T11:32:40.534Z,4.90
2023-03-04T11:35:37.080Z,4.80
2023-03-04T11:38:13.128Z,4.80
2023-03-04T11:40:57.817Z,5.00
2023-03-04T11:43:34.513Z,5.00
2023-03-04T11:46:11.653Z,4.90
2023-03-04T11:48:44.922Z,5.10
2023-03-04T11:51:30.554Z,5.20
2023-03-04T11:54:03.593Z,5.30
2023-03-04T11:56:32.862Z,5.50
2023-03-04T11:59:09.040Z,5.60
2023-03-04T12:01:38.902Z,5.50
2023-03-04T12:04:08.865Z,5.50
2023-03-04T12:06:40.486Z,5.50
2023-03-04T12:09:16.388Z,5.60
2023-03-04T12:11:43.920Z,5.60
2023-03-04T12:14:13.823Z,5.60
2023-03-04T12:16:40.670Z,5.20
2023-03-04T12:19:07.513Z,5.40
2023-03-04T12:21:41.304Z,5.40
2023-03-04T12:24:27.204Z,5.60
2023-03-04T12:27:09.295Z,5.50
2023-03-04T12:29:47.381Z,5.50
2023-03-04T12:32:32.220Z,5.50
2023-03-04T12:35:14.741Z,5.50
2023-03-04T12:38:00.440Z,5.20
2023-03-04T12:40:32.993Z,5.50
2023-03-04T12:43:19.248Z,5.30
2023-03-04T12:45:58.177Z,5.50
2023-03-04T12:48:45.323Z,5.50
2023-03-04T12:51:26.540Z,5.20
2023-03-04T12:54:12.357Z,5.40
2023-03-04T12:56:43.636Z,5.30
2023-03-04T12:59:14.512Z,5.30
2023-03-04T13:02:07.206Z,5.20
2023-03-04T13:04:52.969Z,5.20
2023-03-04T13:07:43.262Z,5.30
2023-03-04T13:10:10.115Z,5.40
2023-03-04T13:13:09.293Z,5.40
2023-03-04T13:15:39.503Z,5.30
2023-03-04T13:18:25.295Z,5.30
2023-03-04T13:21:11.975Z,5.40
2023-03-04T13:23:39.090Z,5.20
2023-03-04T13:26:21.484Z,5.20
2023-03-04T13:28:53.388Z,5.20
2023-03-04T13:31:26.624Z,5.10
2023-03-04T13:33:55.500Z,5.20
2023-03-04T13:36:30.296Z,5.20
2023-03-04T13:39:01.543Z,5.30
2023-03-04T13:41:48.237Z,5.20
2023-03-04T13:44:35.225Z,5.40
2023-03-04T13:47:09.884Z,5.40
2023-03-04T13:49:36.782Z,5.50
2023-03-04T13:52:23.585Z,5.40
2023-03-04T13:54:50.526Z,5.40
2023-03-04T13:57:19.552Z,5.30
2023-03-04T13:59:56.135Z,5.40
2023-03-04T14:02:25.612Z,5.60
2023-03-04T14:05:00.065Z,5.40
2023-03-04T14:07:31.645Z,5.50
2023-03-04T14:10:01.300Z,5.50
2023-03-04T14:12:29.728Z,5.40
2023-03-04T14:14:58.221Z,5.30
2023-03-04T14:17:32.419Z,5.20
2023-03-04T14:19:59.988Z,5.30
2023-03-04T14:22:31.019Z,5.30
2023-03-04T14:25:04.280Z,5.20
2023-03-04T14:27:33.154Z,5.30
2023-03-04T14:30:00.947Z,5.10
2023-03-04T14:32:28.814Z,5.10
2023-03-04T14:35:01.598Z,5.10
2023-03-04T14:37:48.854Z,5.10
2023-03-04T14:40:23.599Z,5.10
2023-03-04T14:42:54.771Z,5.20
2023-03-04T14:45:22.245Z,5.20
2023-03-04T14:47:49.371Z,5.00
2023-03-04T14:50:17.880Z,5.10
2023-03-04T14:52:46.083Z,5.10
2023-03-04T14:55:24.123Z,4.90
2023-03-04T14:57:58.535Z,4.90
2023-03-04T15:00:28.845Z,4.90
2023-03-04T15:02:57.504Z,4.80
2023-03-04T15:05:28.268Z,4.90
2023-03-04T15:07:59.876Z,4.70
2023-03-04T15:10:31.969Z,4.80
2023-03-04T15:13:01.580Z,4.80
2023-03-04T15:15:31.610Z,4.70
2023-03-04T15:17:59.461Z,4.80
2023-03-04T15:20:27.267Z,4.80
2023-03-04T15:22:54.051Z,4.80
2023-03-04T15:25:21.072Z,4.80
2023-03-04T15:27:48.975Z,5.00
2023-03-04T15:30:17.490Z,5.10
2023-03-04T15:32:44.287Z,5.00
2023-03-04T15:35:14.691Z,5.10
2023-03-04T15:37:42.096Z,5.00
2023-03-04T15:40:14.672Z,5.00
2023-03-04T15:42:41.488Z,5.00
2023-03-04T15:45:22.409Z,4.80
2023-03-04T15:47:49.292Z,4.90
2023-03-04T15:50:20.252Z,4.80
2023-03-04T15:52:47.738Z,4.90
2023-03-04T15:55:17.918Z,4.80
2023-03-04T15:57:45.999Z,4.80
2023-03-04T16:00:13.335Z,4.90
2023-03-04T16:02:40.180Z,4.80
2023-03-04T16:05:07.898Z,4.70
2023-03-04T16:07:35.757Z,4.60
2023-03-04T16:10:05.708Z,4.60
2023-03-04T16:12:32.650Z,4.60
2023-03-04T16:14:59.400Z,4.60
2023-03-04T16:17:26.237Z,4.60
2023-03-04T16:19:53.119Z,4.60
2023-03-04T16:22:24.135Z,4.50
2023-03-04T16:24:51.616Z,4.50
2023-03-04T16:27:19.998Z,4.50
2023-03-04T16:29:47.077Z,4.30
2023-03-04T16:32:13.919Z,4.30
2023-03-04T16:34:40.955Z,4.20
2023-03-04T16:37:12.430Z,4.20
2023-03-04T16:39:41.217Z,4.20
2023-03-04T16:42:15.265Z,4.20
2023-03-04T16:44:42.470Z,4.10
2023-03-04T16:47:09.438Z,4.10
2023-03-04T16:49:36.275Z,4.00
2023-03-04T16:52:03.112Z,4.00
2023-03-04T16:54:33.110Z,3.90
2023-03-04T16:57:00.143Z,3.90
2023-03-04T16:59:27.168Z,3.90
2023-03-04T17:01:54.167Z,3.90
2023-03-04T17:04:21.521Z,3.90
2023-03-04T17:06:48.604Z,3.80
2023-03-04T17:09:15.397Z,3.80
2023-03-04T17:11:42.216Z,3.90
2023-03-04T17:14:08.996Z,3.90
2023-03-04T17:16:36.110Z,3.80
2023-03-04T17:19:02.900Z,3.80
2023-03-04T17:21:29.807Z,3.80
2023-03-04T17:23:56.585Z,3.70
2023-03-04T17:26:23.512Z,3.70
2023-03-04T17:28:50.741Z,3.70
2023-03-04T17:31:19.166Z,3.70
2023-03-04T17:33:46.594Z,3.60
2023-03-04T17:36:14.251Z,3.60
2023-03-04T17:38:41.224Z,3.60
2023-03-04T17:41:09.851Z,3.60
2023-03-04T17:43:36.597Z,3.70
2023-03-04T17:46:07.897Z,3.70
2023-03-04T17:48:35.106Z,3.70
2023-03-04T17:51:02.385Z,3.60
2023-03-04T17:53:29.380Z,3.60
2023-03-04T17:55:57.941Z,3.60
2023-03-04T17:58:24.830Z,3.60
2023-03-04T18:00:52.312Z,3.50
2023-03-04T18:03:19.342Z,3.60
2023-03-04T18:05:46.124Z,3.70
2023-03-04T18:08:12.973Z,3.60
2023-03-04T18:10:39.777Z,3.60
2023-03-04T18:13:06.656Z,3.60
2023-03-04T18:15:33.600Z,3.60
2023-03-04T18:18:00.399Z,3.60
2023-03-04T18:20:27.224Z,3.50
2023-03-04T18:22:54.069Z,3.60
2023-03-04T18:25:21.501Z,3.50
2023-03-04T18:27:48.251Z,3.50
2023-03-04T18:30:17.738Z,3.50
2023-03-04T18:32:51.723Z,3.60
2023-03-04T18:35:19.713Z,3.70
2023-03-04T18:37:46.782Z,3.60
2023-03-04T18:40:14.123Z,3.60
2023-03-04T18:42:44.113Z,3.50
2023-03-04T18:45:12.330Z,3.50
2023-03-04T18:47:40.685Z,3.50
2023-03-04T18:50:07.931Z,3.50
2023-03-04T18:52:34.739Z,3.60
2023-03-04T18:55:01.922Z,3.60
2023-03-04T18:57:28.864Z,3.70
2023-03-04T18:59:58.651Z,3.50
2023-03-04T19:02:47.520Z,3.60
2023-03-04T19:05:16.336Z,3.60
2023-03-04T19:07:43.308Z,3.50
2023-03-04T19:10:12.245Z,3.60
2023-03-04T19:12:39.672Z,3.60
2023-03-04T19:15:08.635Z,3.60
2023-03-04T19:17:35.991Z,3.50
2023-03-04T19:20:03.884Z,3.50
2023-03-04T19:22:30.744Z,3.40
2023-03-04T19:24:57.593Z,3.50
2023-03-04T19:27:24.592Z,3.50
2023-03-04T19:29:51.356Z,3.50
2023-03-04T19:32:19.108Z,3.40
2023-03-04T19:34:47.002Z,3.40
2023-03-04T19:37:14.171Z,3.50
2023-03-04T19:39:41.287Z,3.60
2023-03-04T19:42:08.185Z,3.60
2023-03-04T19:44:35.073Z,3.60
2023-03-04T19:47:02.003Z,3.50
2023-03-04T19:49:28.773Z,3.50
2023-03-04T19:51:55.663Z,3.60
2023-03-04T19:54:22.483Z,3.50
2023-03-04T19:56:49.312Z,3.50
2023-03-04T19:59:16.146Z,3.50
2023-03-04T20:01:43.380Z,3.50
2023-03-04T20:04:11.788Z,3.50
2023-03-04T20:06:40.201Z,3.40
2023-03-04T20:09:07.377Z,3.50
2023-03-04T20:11:39.258Z,3.50
2023-03-04T20:14:11.011Z,3.50
2023-03-04T20:16:37.883Z,3.40
2023-03-04T20:19:04.775Z,3.50
2023-03-04T20:21:32.235Z,3.50
2023-03-04T20:24:00.752Z,3.50
2023-03-04T20:26:28.341Z,3.60
2023-03-04T20:28:55.256Z,3.60
2023-03-04T20:31:23.615Z,3.50
2023-03-04T20:33:51.328Z,3.60
2023-03-04T20:36:18.996Z,3.50
2023-03-04T20:38:45.880Z,3.40
2023-03-04T20:41:13.130Z,3.50
2023-03-04T20:43:40.008Z,3.40
2023-03-04T20:46:25.665Z,3.50
2023-03-04T20:48:53.080Z,3.40
2023-03-04T20:51:20.116Z,3.50
2023-03-04T20:53:47.036Z,3.40
2023-03-04T20:56:13.902Z,3.50
2023-03-04T20:58:40.739Z,3.50
2023-03-04T21:01:07.562Z,3.40
2023-03-04T21:03:34.554Z,3.30
2023-03-04T21:06:05.986Z,3.40
2023-03-04T21:08:32.940Z,3.30
2023-03-04T21:10:59.726Z,3.50
2023-03-04T21:13:32.789Z,3.50
2023-03-04T21:15:59.826Z,3.50
2023-03-04T21:18:28.554Z,3.50
2023-03-04T21:20:56.387Z,3.50
2023-03-04T21:23:23.130Z,3.60
2023-03-04T21:25:49.879Z,3.50
2023-03-04T21:28:16.800Z,3.50
2023-03-04T21:30:43.727Z,3.40
2023-03-04T21:33:16.879Z,3.30
2023-03-04T21:35:43.981Z,3.40
2023-03-04T21:38:10.783Z,3.40
2023-03-04T21:40:37.980Z,3.50
2023-03-04T21:43:06.900Z,3.60
2023-03-04T21:45:33.784Z,3.60
2023-03-04T21:48:00.546Z,3.70
2023-03-04T21:50:27.379Z,3.60
2023-03-04T21:52:54.150Z,3.50
2023-03-04T21:55:21.028Z,3.50
2023-03-04T21:57:47.941Z,3.50
2023-03-04T22:00:15.615Z,3.70
2023-03-04T22:02:42.485Z,3.60
2023-03-04T22:05:09.398Z,3.60
2023-03-04T22:07:36.254Z,3.50
2023-03-04T22:10:06.594Z,3.60
2023-03-04T22:12:33.492Z,3.60
2023-03-04T22:15:00.595Z,3.70
2023-03-04T22:17:27.470Z,3.70
2023-03-04T22:19:55.196Z,3.70
2023-03-04T22:22:22.105Z,3.50
2023-03-04T22:24:48.976Z,3.50
2023-03-04T22:27:15.788Z,3.40
2023-03-04T22:29:42.626Z,3.40
2023-03-04T22:32:09.563Z,3.50
2023-03-04T22:34:36.430Z,3.60
2023-03-04T22:37:03.390Z,3.60
2023-03-04T22:39:30.234Z,3.60
2023-03-04T22:41:57.080Z,3.40
2023-03-04T22:44:23.867Z,3.40
2023-03-04T22:46:50.780Z,3.40
2023-03-04T22:49:17.649Z,3.50
2023-03-04T22:51:44.913Z,3.50
2023-03-04T22:54:13.019Z,3.60
2023-03-04T22:56:39.795Z,3.60
2023-03-04T22:59:06.600Z,3.60
2023-03-04T23:01:33.707Z,3.70
2023-03-04T23:04:00.613Z,3.80
2023-03-04T23:06:31.517Z,3.70
2023-03-04T23:08:58.844Z,3.70
2023-03-04T23:11:28.008Z,3.70
2023-03-04T23:13:55.346Z,3.70
2023-03-04T23:16:23.502Z,3.70
2023-03-04T23:18:50.420Z,3.70
2023-03-04T23:21:22.027Z,3.70
2023-03-04T23:23:49.211Z,3.60
2023-03-04T23:26:17.734Z,3.70
2023-03-04T23:28:44.727Z,3.80
2023-03-04T23:31:14.779Z,3.70
2023-03-04T23:33:45.601Z,3.70
2023-03-04T23:36:14.997Z,3.70
2023-03-04T23:38:42.881Z,3.70
2023-03-04T23:41:14.177Z,3.60
2023-03-04T23:43:41.120Z,3.50
2023-03-04T23:46:13.949Z,3.50
2023-03-04T23:48:43.302Z,3.60
2023-03-04T23:51:10.243Z,3.60
2023-03-04T23:53:39.191Z,3.60
2023-03-04T23:56:13.869Z,3.60
2023-03-04T23:58:42.402Z,3.50
